Time;durP1;ratioP1;P1;durP2;ratioP2;P2;SDS_P1;SDS_P2;PMS_P1;PMS_P2;Temp;Humidity;BMP_temperature;BMP_pressure;BME280_temperature;BME280_humidity;BME280_pressure;Samples;Min_cycle;Max_cycle;Signal;HPM_P1;HPM_P2
2020/12/25 00:02:29;;;;;;;0.60;0.60;;;;;;;;;;5012587;28;20415;-75
2020/12/25 00:05:14;;;;;;;0.50;0.50;;;;;;;;;;5041759;28;20047;-78
2020/12/25 00:08:00;;;;;;;0.77;0.57;;;;;;;;;;5052194;28;20123;-78
2020/12/25 00:10:45;;;;;;;0.40;0.40;;;;;;;;;;5051296;28;20077;-78
2020/12/25 00:13:31;;;;;;;0.50;0.47;;;;;;;;;;5051021;28;20021;-77
2020/12/25 00:16:23;;;;;;;0.50;0.50;;;;;;;;;;5068455;28;20019;-76
2020/12/25 00:19:08;;;;;;;0.40;0.40;;;;;;;;;;5053599;28;20114;-76
2020/12/25 00:21:53;;;;;;;0.40;0.40;;;;;;;;;;5072132;28;20089;-78
2020/12/25 00:24:40;;;;;;;0.40;0.40;;;;;;;;;;5068920;28;20542;-77
2020/12/25 00:27:25;;;;;;;0.40;0.40;;;;;;;;;;5072000;28;20046;-78
2020/12/25 00:30:10;;;;;;;0.40;0.40;;;;;;;;;;5060448;28;20127;-76
2020/12/25 00:32:56;;;;;;;0.50;0.40;;;;;;;;;;5051942;28;20121;-79
2020/12/25 00:35:42;;;;;;;0.32;0.32;;;;;;;;;;5049640;28;20054;-79
2020/12/25 00:38:27;;;;;;;0.40;0.40;;;;;;;;;;5051463;28;20146;-78
2020/12/25 00:41:12;;;;;;;0.40;0.40;;;;;;;;;;5040782;28;20040;-78
2020/12/25 00:43:57;;;;;;;0.32;0.32;;;;;;;;;;5031629;28;20025;-78
2020/12/25 00:46:43;;;;;;;0.47;0.47;;;;;;;;;;5046516;28;20033;-78
2020/12/25 00:49:28;;;;;;;1.73;0.45;;;;;;;;;;5051454;28;20561;-77
2020/12/25 00:52:13;;;;;;;1.20;0.60;;;;;;;;;;5048838;28;20577;-77
2020/12/25 00:54:59;;;;;;;0.50;0.50;;;;;;;;;;5051223;28;20024;-77
2020/12/25 00:57:44;;;;;;;0.40;0.40;;;;;;;;;;5051478;28;20044;-78
2020/12/25 01:00:29;;;;;;;0.65;0.60;;;;;;;;;;5039762;28;20012;-77
2020/12/25 01:03:14;;;;;;;0.70;0.70;;;;;;;;;;5071618;28;20015;-78
2020/12/25 01:05:59;;;;;;;0.77;0.77;;;;;;;;;;5037405;28;20139;-78
2020/12/25 01:08:45;;;;;;;1.00;0.88;;;;;;;;;;5070976;28;20032;-77
2020/12/25 01:11:30;;;;;;;0.60;0.60;;;;;;;;;;5067866;28;20066;-76
2020/12/25 01:14:15;;;;;;;0.80;0.80;;;;;;;;;;5071071;28;20555;-76
2020/12/25 01:17:01;;;;;;;0.70;0.70;;;;;;;;;;5058228;28;20523;-76
2020/12/25 01:19:46;;;;;;;1.00;0.90;;;;;;;;;;5050555;28;20052;-77
2020/12/25 01:22:31;;;;;;;1.48;1.00;;;;;;;;;;5048472;28;20116;-78
2020/12/25 01:25:16;;;;;;;0.85;0.82;;;;;;;;;;5050878;28;20028;-76
2020/12/25 01:28:01;;;;;;;1.05;0.95;;;;;;;;;;5048641;28;20031;-77
2020/12/25 01:30:47;;;;;;;2.53;0.90;;;;;;;;;;5050563;28;20243;-77
2020/12/25 01:33:33;;;;;;;2.03;1.00;;;;;;;;;;5048260;28;20021;-76
2020/12/25 01:36:18;;;;;;;1.27;1.10;;;;;;;;;;5050261;28;20674;-75
2020/12/25 01:39:03;;;;;;;1.33;1.15;;;;;;;;;;5062097;28;20024;-76
2020/12/25 01:41:48;;;;;;;0.95;0.85;;;;;;;;;;5070631;28;20293;-76
2020/12/25 01:44:34;;;;;;;0.95;0.85;;;;;;;;;;5030504;28;20095;-77
2020/12/25 01:47:19;;;;;;;2.28;1.50;;;;;;;;;;5032361;28;20255;-78
2020/12/25 01:50:05;;;;;;;1.75;1.33;;;;;;;;;;5070488;28;20496;-77
2020/12/25 01:52:52;;;;;;;1.65;1.35;;;;;;;;;;5068152;28;20466;-78
2020/12/25 01:55:37;;;;;;;1.88;1.52;;;;;;;;;;5030084;28;20567;-78
2020/12/25 01:58:23;;;;;;;1.48;1.25;;;;;;;;;;5065603;28;20498;-78
2020/12/25 02:01:09;;;;;;;2.28;1.60;;;;;;;;;;5068536;28;20346;-78
2020/12/25 02:03:55;;;;;;;3.75;1.67;;;;;;;;;;5064795;28;20066;-78
2020/12/25 02:06:40;;;;;;;2.22;1.60;;;;;;;;;;5050238;28;20032;-78
2020/12/25 02:09:26;;;;;;;4.18;2.67;;;;;;;;;;5048028;28;20110;-78
2020/12/25 02:12:11;;;;;;;3.58;1.98;;;;;;;;;;5036360;28;20037;-78
2020/12/25 02:14:56;;;;;;;4.82;2.40;;;;;;;;;;5047751;28;20028;-78
2020/12/25 02:17:42;;;;;;;3.65;2.30;;;;;;;;;;5065148;28;20031;-77
2020/12/25 02:20:28;;;;;;;3.97;2.22;;;;;;;;;;5061236;28;20033;-77
2020/12/25 02:23:13;;;;;;;4.32;2.42;;;;;;;;;;5069127;28;20031;-77
2020/12/25 02:25:58;;;;;;;3.65;2.65;;;;;;;;;;5069373;28;20118;-78
2020/12/25 02:28:43;;;;;;;5.18;3.00;;;;;;;;;;5068297;28;20393;-77
2020/12/25 02:31:28;;;;;;;7.03;2.95;;;;;;;;;;5074138;28;20497;-77
2020/12/25 02:34:14;;;;;;;4.75;2.53;;;;;;;;;;5071730;28;20036;-78
2020/12/25 02:36:59;;;;;;;5.13;2.67;;;;;;;;;;5070651;28;20505;-78
2020/12/25 02:39:44;;;;;;;4.72;2.75;;;;;;;;;;5042793;28;20020;-78
2020/12/25 02:42:29;;;;;;;3.80;2.90;;;;;;;;;;5073796;28;20042;-78
2020/12/25 02:45:14;;;;;;;6.93;2.97;;;;;;;;;;5070090;28;20024;-78
2020/12/25 02:47:59;;;;;;;7.45;3.10;;;;;;;;;;5073838;28;20120;-77
2020/12/25 02:50:45;;;;;;;5.43;3.05;;;;;;;;;;5071344;28;20028;-76
2020/12/25 02:53:30;;;;;;;4.68;2.63;;;;;;;;;;5069049;28;20384;-77
2020/12/25 02:56:19;;;;;;;3.33;2.42;;;;;;;;;;5043267;28;20555;-77
2020/12/25 02:59:04;;;;;;;4.97;3.10;;;;;;;;;;5053577;28;20517;-77
2020/12/25 03:01:53;;;;;;;3.97;2.38;;;;;;;;;;5066384;28;20276;-77
2020/12/25 03:04:38;;;;;;;4.72;2.90;;;;;;;;;;5066977;28;20556;-77
2020/12/25 03:07:23;;;;;;;4.28;2.80;;;;;;;;;;5051971;28;20390;-77
2020/12/25 03:10:08;;;;;;;4.68;2.97;;;;;;;;;;5053254;28;20021;-77
2020/12/25 03:12:53;;;;;;;5.88;3.08;;;;;;;;;;5033364;28;20179;-78
2020/12/25 03:15:39;;;;;;;3.80;2.47;;;;;;;;;;5033345;28;20028;-77
2020/12/25 03:18:24;;;;;;;3.92;2.83;;;;;;;;;;5047477;28;20032;-77
2020/12/25 03:21:09;;;;;;;3.60;2.40;;;;;;;;;;5024827;28;20043;-77
2020/12/25 03:23:54;;;;;;;4.28;2.72;;;;;;;;;;5073355;28;20654;-78
2020/12/25 03:26:39;;;;;;;4.57;2.50;;;;;;;;;;5070888;28;20032;-76
2020/12/25 03:29:24;;;;;;;4.60;3.25;;;;;;;;;;5072989;28;20115;-77
2020/12/25 03:32:10;;;;;;;6.35;2.53;;;;;;;;;;5061753;28;20131;-76
2020/12/25 03:34:55;;;;;;;3.40;2.60;;;;;;;;;;5052186;28;20379;-77
2020/12/25 03:37:40;;;;;;;4.18;2.88;;;;;;;;;;5053067;28;20093;-76
2020/12/25 03:40:25;;;;;;;4.20;2.40;;;;;;;;;;5071100;28;20464;-77
2020/12/25 03:43:10;;;;;;;3.83;2.58;;;;;;;;;;5055951;28;20028;-76
2020/12/25 03:45:56;;;;;;;4.35;3.03;;;;;;;;;;5052365;28;20078;-76
2020/12/25 03:48:41;;;;;;;5.05;3.47;;;;;;;;;;5060069;28;20090;-77
2020/12/25 03:51:26;;;;;;;6.38;3.00;;;;;;;;;;5072406;28;20051;-76
2020/12/25 03:54:11;;;;;;;3.75;2.95;;;;;;;;;;5059899;28;20028;-76
2020/12/25 03:56:56;;;;;;;9.02;3.08;;;;;;;;;;5059655;28;20544;-76
2020/12/25 03:59:42;;;;;;;5.18;3.35;;;;;;;;;;5072596;28;20472;-76
2020/12/25 04:02:36;;;;;;;8.45;2.97;;;;;;;;;;5069881;28;20253;-78
2020/12/25 04:05:21;;;;;;;5.05;3.05;;;;;;;;;;5072230;28;20043;-78
2020/12/25 04:08:06;;;;;;;7.47;3.45;;;;;;;;;;5069819;28;20460;-78
2020/12/25 04:10:51;;;;;;;6.10;3.40;;;;;;;;;;5072401;28;20023;-77
2020/12/25 04:13:37;;;;;;;7.60;4.40;;;;;;;;;;5063078;28;20033;-77
2020/12/25 04:16:22;;;;;;;5.72;3.42;;;;;;;;;;5056156;28;20012;-78
2020/12/25 04:19:07;;;;;;;5.90;3.20;;;;;;;;;;5059704;28;20051;-78
2020/12/25 04:21:52;;;;;;;5.18;3.30;;;;;;;;;;5052094;28;20078;-77
2020/12/25 04:24:37;;;;;;;5.82;3.55;;;;;;;;;;5049216;28;20108;-76
2020/12/25 04:27:23;;;;;;;6.28;2.80;;;;;;;;;;5051813;28;20025;-77
2020/12/25 04:30:08;;;;;;;5.00;3.42;;;;;;;;;;5062560;28;20016;-77
2020/12/25 04:32:53;;;;;;;3.90;3.30;;;;;;;;;;5071855;28;20131;-76
2020/12/25 04:35:38;;;;;;;5.97;3.70;;;;;;;;;;5068921;28;20020;-77
2020/12/25 04:38:23;;;;;;;3.67;2.65;;;;;;;;;;5065151;28;20016;-76
2020/12/25 04:41:09;;;;;;;4.28;3.35;;;;;;;;;;5060911;28;20028;-77
2020/12/25 04:43:54;;;;;;;4.72;3.22;;;;;;;;;;5071465;28;20034;-77
2020/12/25 04:46:39;;;;;;;4.55;3.28;;;;;;;;;;5051418;28;20522;-76
2020/12/25 04:49:24;;;;;;;4.72;3.65;;;;;;;;;;5051640;28;20119;-77
2020/12/25 04:52:10;;;;;;;4.05;2.90;;;;;;;;;;5071461;28;20030;-76
2020/12/25 04:54:55;;;;;;;6.05;4.00;;;;;;;;;;5058026;28;20028;-76
2020/12/25 04:57:40;;;;;;;5.20;3.28;;;;;;;;;;5058548;28;20016;-77
2020/12/25 05:00:27;;;;;;;4.18;2.70;;;;;;;;;;5053542;28;20677;-77
2020/12/25 05:03:12;;;;;;;3.35;2.75;;;;;;;;;;5071383;28;20150;-77
2020/12/25 05:06:01;;;;;;;5.10;3.30;;;;;;;;;;5057953;28;20533;-77
2020/12/25 05:08:47;;;;;;;3.67;2.80;;;;;;;;;;5051054;28;20079;-77
2020/12/25 05:11:33;;;;;;;4.28;2.63;;;;;;;;;;5048494;28;20145;-77
2020/12/25 05:14:18;;;;;;;2.50;2.10;;;;;;;;;;5051194;28;20141;-77
2020/12/25 05:17:08;;;;;;;3.00;2.40;;;;;;;;;;5058356;28;20072;-77
2020/12/25 05:19:53;;;;;;;5.22;2.53;;;;;;;;;;5070989;28;20038;-77
2020/12/25 05:22:38;;;;;;;3.03;2.50;;;;;;;;;;5049387;28;20036;-77
2020/12/25 05:25:27;;;;;;;3.88;3.10;;;;;;;;;;5051112;28;20028;-77
2020/12/25 05:28:12;;;;;;;3.13;2.47;;;;;;;;;;5031029;28;20036;-77
2020/12/25 05:30:59;;;;;;;3.28;2.58;;;;;;;;;;5032347;28;20028;-77
2020/12/25 05:33:47;;;;;;;5.80;2.65;;;;;;;;;;5070788;28;20055;-78
2020/12/25 05:36:32;;;;;;;3.47;2.67;;;;;;;;;;5068026;28;20105;-78
2020/12/25 05:39:24;;;;;;;4.53;2.90;;;;;;;;;;5053456;28;20020;-78
2020/12/25 05:42:09;;;;;;;3.10;2.42;;;;;;;;;;5048323;28;20032;-77
2020/12/25 05:44:54;;;;;;;3.85;2.90;;;;;;;;;;5050550;28;20501;-77
2020/12/25 05:47:39;;;;;;;3.95;2.88;;;;;;;;;;5048289;28;20071;-78
2020/12/25 05:50:24;;;;;;;3.80;3.00;;;;;;;;;;5050419;28;20024;-77
2020/12/25 05:53:10;;;;;;;3.88;3.03;;;;;;;;;;5048270;28;20032;-77
2020/12/25 05:55:55;;;;;;;5.35;3.47;;;;;;;;;;5050285;28;20638;-77
2020/12/25 05:58:42;;;;;;;4.20;3.20;;;;;;;;;;5044371;28;20027;-77
2020/12/25 06:01:30;;;;;;;4.88;3.30;;;;;;;;;;5049924;28;20583;-77
2020/12/25 06:04:15;;;;;;;5.93;3.10;;;;;;;;;;5046725;28;20041;-78
2020/12/25 06:07:00;;;;;;;5.15;3.22;;;;;;;;;;5050233;28;20090;-77
2020/12/25 06:09:52;;;;;;;5.55;3.28;;;;;;;;;;5030322;28;20233;-77
2020/12/25 06:12:40;;;;;;;4.65;3.05;;;;;;;;;;5032361;28;20070;-77
2020/12/25 06:15:27;;;;;;;4.30;3.03;;;;;;;;;;5070003;28;20393;-77
2020/12/25 06:18:18;;;;;;;5.75;3.47;;;;;;;;;;5067435;28;20039;-77
2020/12/25 06:21:06;;;;;;;5.78;4.07;;;;;;;;;;5070424;28;20065;-77
2020/12/25 06:23:52;;;;;;;7.00;4.07;;;;;;;;;;5058496;28;20028;-77
2020/12/25 06:26:39;;;;;;;5.80;4.65;;;;;;;;;;5049569;28;20652;-77
2020/12/25 06:29:25;;;;;;;6.70;4.53;;;;;;;;;;5047420;28;20055;-77
2020/12/25 06:32:11;;;;;;;9.73;5.70;;;;;;;;;;5050225;28;20025;-76
2020/12/25 06:34:59;;;;;;;5.63;3.90;;;;;;;;;;5047638;28;20036;-76
2020/12/25 06:37:44;;;;;;;6.38;3.92;;;;;;;;;;5053128;28;20020;-77
2020/12/25 06:40:31;;;;;;;5.53;3.75;;;;;;;;;;5061422;28;20479;-77
2020/12/25 06:43:17;;;;;;;5.65;3.92;;;;;;;;;;5069074;28;20809;-77
2020/12/25 06:46:03;;;;;;;6.40;4.50;;;;;;;;;;5069496;28;20035;-77
2020/12/25 06:48:50;;;;;;;4.82;3.58;;;;;;;;;;5067753;28;20078;-77
2020/12/25 06:51:39;;;;;;;6.53;4.28;;;;;;;;;;5069764;28;20713;-77
2020/12/25 06:54:26;;;;;;;7.95;5.32;;;;;;;;;;5053362;28;20129;-77
2020/12/25 06:57:12;;;;;;;7.78;4.63;;;;;;;;;;5052111;28;20070;-77
2020/12/25 06:59:57;;;;;;;5.70;4.07;;;;;;;;;;5052371;28;20031;-77
2020/12/25 07:02:43;;;;;;;6.70;4.40;;;;;;;;;;5069672;28;20020;-77
2020/12/25 07:05:31;;;;;;;5.30;3.95;;;;;;;;;;5057278;28;20047;-77
2020/12/25 07:08:27;;;;;;;5.15;3.72;;;;;;;;;;5049355;28;20510;-77
2020/12/25 07:11:12;;;;;;;4.72;3.42;;;;;;;;;;5047397;28;20028;-77
2020/12/25 07:13:57;;;;;;;5.35;3.30;;;;;;;;;;5049582;28;20364;-78
2020/12/25 07:16:42;;;;;;;6.78;4.35;;;;;;;;;;5057001;28;20020;-78
2020/12/25 07:19:28;;;;;;;4.55;3.40;;;;;;;;;;5073192;28;20052;-78
2020/12/25 07:22:13;;;;;;;4.20;3.05;;;;;;;;;;5051991;28;20037;-78
2020/12/25 07:24:58;;;;;;;3.58;2.55;;;;;;;;;;5053082;28;20071;-78
2020/12/25 07:27:44;;;;;;;3.83;2.70;;;;;;;;;;5033013;28;20380;-78
2020/12/25 07:30:30;;;;;;;2.78;2.20;;;;;;;;;;5047190;28;20040;-77
2020/12/25 07:33:15;;;;;;;3.08;2.40;;;;;;;;;;5072948;28;20157;-76
2020/12/25 07:36:00;;;;;;;3.05;2.20;;;;;;;;;;5070144;28;20031;-77
2020/12/25 07:38:45;;;;;;;3.42;2.45;;;;;;;;;;5060301;28;20023;-77
2020/12/25 07:41:32;;;;;;;4.72;2.75;;;;;;;;;;5056691;28;20024;-77
2020/12/25 07:44:18;;;;;;;2.72;2.30;;;;;;;;;;5073074;28;20023;-76
2020/12/25 07:47:03;;;;;;;2.95;2.03;;;;;;;;;;5061242;28;20036;-77
2020/12/25 07:49:59;;;;;;;4.18;2.67;;;;;;;;;;5052946;28;20020;-77
2020/12/25 07:52:47;;;;;;;2.45;2.15;;;;;;;;;;5057645;28;20024;-78
2020/12/25 07:55:32;;;;;;;4.32;2.50;;;;;;;;;;5032658;28;20430;-77
2020/12/25 07:58:18;;;;;;;4.43;2.47;;;;;;;;;;5049832;28;20491;-77
2020/12/25 08:01:03;;;;;;;3.70;2.60;;;;;;;;;;5052442;28;20021;-77
2020/12/25 08:03:49;;;;;;;4.50;2.55;;;;;;;;;;5049724;28;20107;-77
2020/12/25 08:06:35;;;;;;;3.25;2.38;;;;;;;;;;5052337;28;20036;-77
2020/12/25 08:09:20;;;;;;;3.00;2.40;;;;;;;;;;5052205;28;20089;-77
2020/12/25 08:12:08;;;;;;;3.85;2.63;;;;;;;;;;5051073;28;20131;-77
2020/12/25 08:14:53;;;;;;;4.35;2.80;;;;;;;;;;5072270;28;20081;-77
2020/12/25 08:17:39;;;;;;;3.75;2.67;;;;;;;;;;5069426;28;20172;-78
2020/12/25 08:20:25;;;;;;;5.65;3.63;;;;;;;;;;5058424;28;20081;-78
2020/12/25 08:23:10;;;;;;;5.22;3.95;;;;;;;;;;5069185;28;20046;-78
2020/12/25 08:25:55;;;;;;;4.68;2.90;;;;;;;;;;5072363;28;20028;-78
2020/12/25 08:28:42;;;;;;;9.45;4.65;;;;;;;;;;5059731;28;20108;-78
2020/12/25 08:31:33;;;;;;;5.57;3.88;;;;;;;;;;5052220;28;20635;-78
2020/12/25 08:34:24;;;;;;;7.72;5.00;;;;;;;;;;5049282;28;20037;-78
2020/12/25 08:37:13;;;;;;;10.75;6.53;;;;;;;;;;5052060;28;20059;-78
2020/12/25 08:40:14;;;;;;;9.47;6.43;;;;;;;;;;5046449;28;20039;-79
2020/12/25 08:43:20;;;;;;;11.98;7.30;;;;;;;;;;5051672;28;20028;-78
2020/12/25 08:46:05;;;;;;;9.40;6.90;;;;;;;;;;5031368;28;20502;-78
2020/12/25 08:48:51;;;;;;;11.73;7.82;;;;;;;;;;5037433;28;20020;-78
2020/12/25 08:51:37;;;;;;;12.23;6.80;;;;;;;;;;5071579;28;20169;-77
2020/12/25 08:54:26;;;;;;;9.13;6.15;;;;;;;;;;5063235;28;20043;-76
2020/12/25 08:57:12;;;;;;;11.02;7.28;;;;;;;;;;5062456;28;20039;-76
2020/12/25 09:00:07;;;;;;;10.50;7.00;;;;;;;;;;5053426;28;20032;-78
2020/12/25 09:02:58;;;;;;;12.48;7.55;;;;;;;;;;5071486;28;20035;-77
2020/12/25 09:05:44;;;;;;;13.60;8.20;;;;;;;;;;5068514;28;20055;-77
2020/12/25 09:08:29;;;;;;;17.25;9.13;;;;;;;;;;5071320;28;20474;-77
2020/12/25 09:11:15;;;;;;;11.82;7.40;;;;;;;;;;5068804;28;20020;-76
2020/12/25 09:14:00;;;;;;;13.05;8.68;;;;;;;;;;5071011;28;20020;-77
2020/12/25 09:16:46;;;;;;;13.55;8.63;;;;;;;;;;5062433;28;20032;-77
2020/12/25 09:19:31;;;;;;;10.02;7.28;;;;;;;;;;5070789;28;20055;-77
2020/12/25 09:22:16;;;;;;;12.52;7.95;;;;;;;;;;5031000;28;20035;-77
2020/12/25 09:25:01;;;;;;;14.20;8.25;;;;;;;;;;5046713;28;20442;-78
2020/12/25 09:27:46;;;;;;;11.63;7.50;;;;;;;;;;5070885;28;20023;-77
2020/12/25 09:30:32;;;;;;;10.68;7.25;;;;;;;;;;5068465;28;20044;-77
2020/12/25 09:33:17;;;;;;;11.60;7.63;;;;;;;;;;5070970;28;20222;-76
2020/12/25 09:36:03;;;;;;;11.73;8.65;;;;;;;;;;5060961;28;20028;-77
2020/12/25 09:38:48;;;;;;;12.73;7.90;;;;;;;;;;5050139;28;20017;-78
2020/12/25 09:41:33;;;;;;;11.13;7.18;;;;;;;;;;5072130;28;20031;-79
2020/12/25 09:44:19;;;;;;;12.63;8.38;;;;;;;;;;5070725;28;20639;-78
2020/12/25 09:47:04;;;;;;;11.95;8.27;;;;;;;;;;5055764;28;20358;-78
2020/12/25 09:49:49;;;;;;;13.00;8.60;;;;;;;;;;5050350;28;20665;-78
2020/12/25 09:52:35;;;;;;;14.13;7.13;;;;;;;;;;5048317;28;20032;-77
2020/12/25 09:55:20;;;;;;;10.63;6.35;;;;;;;;;;5050466;28;20042;-79
2020/12/25 09:58:06;;;;;;;10.85;7.10;;;;;;;;;;5048109;28;20025;-79
2020/12/25 10:00:52;;;;;;;10.38;6.03;;;;;;;;;;5050408;28;20025;-78
2020/12/25 10:03:37;;;;;;;9.98;7.47;;;;;;;;;;5049094;28;20021;-78
2020/12/25 10:06:22;;;;;;;10.57;6.90;;;;;;;;;;5049559;28;20049;-78
2020/12/25 10:09:07;;;;;;;11.80;8.20;;;;;;;;;;5070359;28;20351;-76
2020/12/25 10:11:54;;;;;;;12.77;6.78;;;;;;;;;;5067990;28;20032;-76
2020/12/25 10:14:39;;;;;;;10.52;6.88;;;;;;;;;;5070182;28;20110;-76
2020/12/25 10:17:24;;;;;;;10.93;6.43;;;;;;;;;;5067347;28;20035;-77
2020/12/25 10:20:09;;;;;;;11.75;6.05;;;;;;;;;;5070209;28;20028;-76
2020/12/25 10:22:54;;;;;;;9.95;5.63;;;;;;;;;;5060184;28;20016;-77
2020/12/25 10:25:40;;;;;;;9.65;5.80;;;;;;;;;;5049969;28;20021;-78
2020/12/25 10:28:25;;;;;;;8.18;5.30;;;;;;;;;;5047992;28;20377;-79
2020/12/25 10:31:10;;;;;;;8.05;5.30;;;;;;;;;;5050118;28;20024;-79
2020/12/25 10:33:55;;;;;;;8.75;5.78;;;;;;;;;;5055959;28;20167;-78
2020/12/25 10:36:41;;;;;;;8.82;5.85;;;;;;;;;;5069982;28;20032;-78
2020/12/25 10:39:26;;;;;;;8.70;5.50;;;;;;;;;;5066844;28;20031;-78
2020/12/25 10:42:11;;;;;;;11.40;6.55;;;;;;;;;;5070358;28;20031;-78
2020/12/25 10:44:57;;;;;;;14.70;8.40;;;;;;;;;;5067586;28;20130;-78
2020/12/25 10:47:42;;;;;;;13.60;6.55;;;;;;;;;;5069765;28;20316;-79
2020/12/25 10:50:27;;;;;;;10.98;6.18;;;;;;;;;;5070865;28;20378;-78
2020/12/25 10:53:12;;;;;;;9.32;5.20;;;;;;;;;;5071274;28;20024;-78
2020/12/25 10:55:57;;;;;;;9.00;5.78;;;;;;;;;;5073776;28;20028;-78
2020/12/25 10:58:42;;;;;;;10.25;6.70;;;;;;;;;;5045087;28;20067;-78
2020/12/25 11:01:28;;;;;;;11.07;6.75;;;;;;;;;;5059646;28;20032;-79
2020/12/25 11:04:14;;;;;;;9.38;6.07;;;;;;;;;;5056626;28;20032;-78
2020/12/25 11:06:59;;;;;;;11.60;5.45;;;;;;;;;;5073855;28;20024;-78
2020/12/25 11:09:44;;;;;;;9.13;5.15;;;;;;;;;;5062738;28;20025;-78
2020/12/25 11:12:29;;;;;;;10.82;5.80;;;;;;;;;;5053303;28;20086;-78
2020/12/25 11:15:14;;;;;;;12.18;5.72;;;;;;;;;;5050776;28;20078;-79
2020/12/25 11:18:00;;;;;;;8.98;5.07;;;;;;;;;;5070831;28;20027;-78
2020/12/25 11:20:45;;;;;;;7.47;4.32;;;;;;;;;;5057352;28;20520;-77
2020/12/25 11:23:30;;;;;;;9.77;5.55;;;;;;;;;;5053008;28;20421;-77
2020/12/25 11:26:19;;;;;;;9.43;5.57;;;;;;;;;;5050542;28;20032;-76
2020/12/25 11:29:05;;;;;;;6.25;4.68;;;;;;;;;;5053043;28;20123;-75
2020/12/25 11:31:56;;;;;;;9.30;5.28;;;;;;;;;;5050800;28;20044;-77
2020/12/25 11:34:41;;;;;;;10.30;5.45;;;;;;;;;;5053383;28;20032;-78
2020/12/25 11:37:26;;;;;;;8.25;5.28;;;;;;;;;;5035019;28;20124;-77
2020/12/25 11:40:11;;;;;;;8.15;4.85;;;;;;;;;;5070349;28;20173;-77
2020/12/25 11:42:56;;;;;;;9.32;5.28;;;;;;;;;;5072654;28;20561;-77
2020/12/25 11:45:42;;;;;;;9.55;5.43;;;;;;;;;;5070424;28;20016;-77
2020/12/25 11:48:27;;;;;;;11.15;5.32;;;;;;;;;;5072837;28;20274;-77
2020/12/25 11:51:19;;;;;;;6.88;4.63;;;;;;;;;;5069546;28;20538;-77
2020/12/25 11:54:04;;;;;;;8.63;4.53;;;;;;;;;;5063560;28;20119;-77
2020/12/25 11:56:51;;;;;;;8.95;4.88;;;;;;;;;;5059293;28;20039;-77
2020/12/25 11:59:36;;;;;;;12.07;4.70;;;;;;;;;;5072804;28;20031;-77
2020/12/25 12:02:21;;;;;;;8.10;5.28;;;;;;;;;;5048924;28;20115;-76
2020/12/25 12:05:06;;;;;;;6.93;4.55;;;;;;;;;;5052272;28;20513;-77
2020/12/25 12:07:51;;;;;;;9.20;5.40;;;;;;;;;;5050307;28;20043;-77
2020/12/25 12:10:37;;;;;;;9.75;4.60;;;;;;;;;;5052400;28;20028;-76
2020/12/25 12:13:22;;;;;;;9.30;5.07;;;;;;;;;;5049870;28;20391;-77
2020/12/25 12:16:14;;;;;;;11.65;5.38;;;;;;;;;;5054394;28;20462;-76
2020/12/25 12:18:59;;;;;;;7.15;4.60;;;;;;;;;;5032601;28;20040;-76
2020/12/25 12:21:45;;;;;;;8.93;4.75;;;;;;;;;;5032266;28;20033;-77
2020/12/25 12:24:30;;;;;;;9.50;5.00;;;;;;;;;;5072187;28;20025;-77
2020/12/25 12:27:15;;;;;;;6.80;4.20;;;;;;;;;;5069565;28;20534;-76
2020/12/25 12:30:01;;;;;;;8.30;4.97;;;;;;;;;;5072080;28;20021;-77
2020/12/25 12:32:46;;;;;;;8.88;4.63;;;;;;;;;;5069389;28;20023;-78
2020/12/25 12:35:31;;;;;;;8.50;4.68;;;;;;;;;;5072021;28;20027;-76
2020/12/25 12:38:16;;;;;;;7.97;3.95;;;;;;;;;;5060063;28;20039;-78
2020/12/25 12:41:02;;;;;;;8.23;4.63;;;;;;;;;;5051862;28;20028;-77
2020/12/25 12:43:47;;;;;;;8.07;4.53;;;;;;;;;;5055958;28;20047;-76
2020/12/25 12:46:32;;;;;;;7.90;4.68;;;;;;;;;;5072010;28;20113;-76
2020/12/25 12:49:17;;;;;;;8.32;4.75;;;;;;;;;;5055597;28;20036;-78
2020/12/25 12:52:02;;;;;;;11.13;7.30;;;;;;;;;;5051786;28;20024;-78
2020/12/25 12:54:48;;;;;;;8.18;4.63;;;;;;;;;;5050396;28;20097;-78
2020/12/25 12:57:33;;;;;;;6.15;4.30;;;;;;;;;;5063458;28;20035;-78
2020/12/25 13:00:18;;;;;;;7.95;4.47;;;;;;;;;;5053491;28;20081;-78
2020/12/25 13:03:03;;;;;;;6.45;3.80;;;;;;;;;;5071214;28;20028;-75
2020/12/25 13:05:49;;;;;;;5.45;3.65;;;;;;;;;;5045057;28;20052;-78
2020/12/25 13:08:34;;;;;;;7.20;4.22;;;;;;;;;;5045761;28;20479;-78
2020/12/25 13:11:23;;;;;;;8.23;4.35;;;;;;;;;;5070959;28;20039;-78
2020/12/25 13:14:09;;;;;;;8.68;3.78;;;;;;;;;;5068701;28;20115;-78
2020/12/25 13:16:54;;;;;;;6.47;4.03;;;;;;;;;;5070580;28;20536;-76
2020/12/25 13:19:39;;;;;;;8.70;3.70;;;;;;;;;;5061739;28;20063;-76
2020/12/25 13:22:24;;;;;;;7.00;3.70;;;;;;;;;;5051110;28;20052;-76
2020/12/25 13:25:09;;;;;;;6.38;3.60;;;;;;;;;;5048744;28;20028;-78
2020/12/25 13:27:55;;;;;;;6.10;4.20;;;;;;;;;;5050936;28;20036;-78
2020/12/25 13:30:40;;;;;;;6.22;3.80;;;;;;;;;;5051156;28;20512;-78
2020/12/25 13:33:25;;;;;;;7.00;4.35;;;;;;;;;;5051180;28;20024;-78
2020/12/25 13:36:10;;;;;;;5.68;3.60;;;;;;;;;;5061394;28;20059;-76
2020/12/25 13:38:56;;;;;;;7.43;3.53;;;;;;;;;;5066760;28;20059;-77
2020/12/25 13:41:41;;;;;;;7.22;3.67;;;;;;;;;;5051239;28;20032;-79
2020/12/25 13:44:26;;;;;;;5.47;3.33;;;;;;;;;;5050575;28;20550;-78
2020/12/25 13:47:11;;;;;;;5.32;3.67;;;;;;;;;;5048818;28;20028;-78
2020/12/25 13:49:56;;;;;;;5.60;3.47;;;;;;;;;;5050788;28;20449;-77
2020/12/25 13:52:41;;;;;;;5.90;3.42;;;;;;;;;;5030880;28;20035;-77
2020/12/25 13:55:27;;;;;;;6.32;3.75;;;;;;;;;;5032450;28;20021;-76
2020/12/25 13:58:12;;;;;;;4.80;2.70;;;;;;;;;;5070285;28;20020;-76
2020/12/25 14:00:57;;;;;;;7.38;3.30;;;;;;;;;;5065447;28;20027;-77
2020/12/25 14:03:42;;;;;;;6.07;3.17;;;;;;;;;;5070612;28;20097;-77
2020/12/25 14:06:32;;;;;;;9.02;3.60;;;;;;;;;;5067305;28;20236;-76
2020/12/25 14:09:17;;;;;;;5.20;3.50;;;;;;;;;;5070692;28;20063;-77
2020/12/25 14:12:02;;;;;;;6.43;3.88;;;;;;;;;;5067496;28;20453;-77
2020/12/25 14:14:47;;;;;;;5.20;3.00;;;;;;;;;;5070228;28;20533;-77
2020/12/25 14:17:32;;;;;;;4.82;2.85;;;;;;;;;;5066347;28;20055;-76
2020/12/25 14:20:18;;;;;;;6.30;3.35;;;;;;;;;;5070280;28;20024;-76
2020/12/25 14:23:03;;;;;;;6.40;3.30;;;;;;;;;;5068016;28;20488;-78
2020/12/25 14:25:48;;;;;;;6.10;3.03;;;;;;;;;;5074919;28;20052;-78
2020/12/25 14:28:33;;;;;;;7.30;3.97;;;;;;;;;;5074550;28;20023;-78
2020/12/25 14:31:19;;;;;;;7.57;3.00;;;;;;;;;;5076517;28;20020;-78
2020/12/25 14:34:04;;;;;;;7.03;3.60;;;;;;;;;;5075699;28;20020;-78
2020/12/25 14:36:50;;;;;;;5.10;3.10;;;;;;;;;;5075487;28;20458;-76
2020/12/25 14:39:35;;;;;;;8.13;3.35;;;;;;;;;;5067887;28;20027;-76
2020/12/25 14:42:20;;;;;;;6.00;2.85;;;;;;;;;;5074141;28;20062;-76
2020/12/25 14:45:05;;;;;;;4.68;3.15;;;;;;;;;;5076806;28;20024;-77
2020/12/25 14:47:50;;;;;;;8.05;3.80;;;;;;;;;;5073752;28;20520;-77
2020/12/25 14:50:36;;;;;;;5.95;3.25;;;;;;;;;;5076648;28;20027;-77
2020/12/25 14:53:21;;;;;;;5.93;2.63;;;;;;;;;;5066390;28;20021;-77
2020/12/25 14:56:06;;;;;;;6.03;3.20;;;;;;;;;;5056206;28;20029;-77
2020/12/25 14:58:51;;;;;;;6.05;2.67;;;;;;;;;;5054016;28;20490;-77
2020/12/25 15:01:37;;;;;;;7.18;3.13;;;;;;;;;;5064465;28;20059;-77
2020/12/25 15:04:22;;;;;;;5.68;2.78;;;;;;;;;;5061355;28;20322;-77
2020/12/25 15:07:07;;;;;;;5.90;3.65;;;;;;;;;;5056576;28;20490;-77
2020/12/25 15:09:54;;;;;;;6.20;2.95;;;;;;;;;;5054342;28;20160;-78
2020/12/25 15:12:39;;;;;;;7.72;2.55;;;;;;;;;;5055969;28;20138;-77
2020/12/25 15:15:24;;;;;;;7.95;3.00;;;;;;;;;;5054351;28;20028;-77
2020/12/25 15:18:10;;;;;;;4.97;3.33;;;;;;;;;;5075585;28;20267;-77
2020/12/25 15:20:56;;;;;;;5.13;2.70;;;;;;;;;;5055548;28;20082;-78
2020/12/25 15:23:41;;;;;;;4.07;2.47;;;;;;;;;;5055376;28;20074;-76
2020/12/25 15:26:26;;;;;;;8.57;3.35;;;;;;;;;;5076544;28;20020;-78
2020/12/25 15:29:11;;;;;;;3.88;2.95;;;;;;;;;;5074006;28;20032;-77
2020/12/25 15:31:57;;;;;;;6.03;2.65;;;;;;;;;;5076336;28;20016;-77
2020/12/25 15:34:42;;;;;;;6.07;2.78;;;;;;;;;;5073987;28;20035;-77
2020/12/25 15:37:27;;;;;;;6.80;2.90;;;;;;;;;;5073046;28;20027;-77
2020/12/25 15:40:12;;;;;;;4.68;2.75;;;;;;;;;;5049528;28;20107;-77
2020/12/25 15:42:58;;;;;;;5.43;2.38;;;;;;;;;;5053085;28;20056;-77
2020/12/25 15:45:43;;;;;;;6.03;2.88;;;;;;;;;;5050565;28;20035;-77
2020/12/25 15:48:28;;;;;;;9.82;3.38;;;;;;;;;;5053023;28;20017;-78
2020/12/25 15:51:14;;;;;;;5.53;3.38;;;;;;;;;;5050734;28;20037;-78
2020/12/25 15:53:59;;;;;;;4.95;2.75;;;;;;;;;;5052787;28;20028;-78
2020/12/25 15:56:44;;;;;;;8.05;3.88;;;;;;;;;;5055262;28;20515;-77
2020/12/25 15:59:29;;;;;;;4.63;2.70;;;;;;;;;;5072803;28;20478;-77
2020/12/25 16:02:14;;;;;;;7.20;3.13;;;;;;;;;;5052686;28;20045;-77
2020/12/25 16:05:00;;;;;;;6.95;3.42;;;;;;;;;;5052370;28;20037;-76
2020/12/25 16:07:46;;;;;;;6.22;3.03;;;;;;;;;;5051479;28;20595;-77
2020/12/25 16:10:31;;;;;;;7.78;2.80;;;;;;;;;;5051171;28;20475;-77
2020/12/25 16:13:17;;;;;;;4.22;2.75;;;;;;;;;;5072501;28;20123;-76
2020/12/25 16:16:02;;;;;;;6.07;3.10;;;;;;;;;;5068198;28;20035;-77
2020/12/25 16:18:47;;;;;;;5.95;3.53;;;;;;;;;;5052145;28;20071;-77
2020/12/25 16:21:33;;;;;;;5.50;3.33;;;;;;;;;;5055576;28;20013;-76
2020/12/25 16:24:18;;;;;;;4.68;2.92;;;;;;;;;;5072169;28;20042;-76
2020/12/25 16:27:03;;;;;;;5.47;2.83;;;;;;;;;;5061399;28;20036;-77
2020/12/25 16:29:48;;;;;;;4.40;3.13;;;;;;;;;;5051577;28;20032;-78
2020/12/25 16:32:34;;;;;;;4.85;2.90;;;;;;;;;;5049685;28;20063;-76